Time;durP1;ratioP1;P1;durP2;ratioP2;P2;SDS_P1;SDS_P2;PMS_P1;PMS_P2;Temp;Humidity;BMP_temperature;BMP_pressure;BME280_temperature;BME280_humidity;BME280_pressure;Samples;Min_cycle;Max_cycle;Signal;HPM_P1;HPM_P2
2022/09/17 00:00:37;;;;;;;5.95;4.15;;;;;;;;;;5079466;28;20031;-76
2022/09/17 00:03:04;;;;;;;8.48;3.40;;;;;;;;;;5076700;28;20032;-75
2022/09/17 00:05:30;;;;;;;5.97;4.43;;;;;;;;;;5078083;28;20032;-76
2022/09/17 00:07:56;;;;;;;5.95;3.83;;;;;;;;;;5076637;28;20042;-76
2022/09/17 00:10:23;;;;;;;8.85;4.15;;;;;;;;;;5075464;28;20020;-76
2022/09/17 00:12:50;;;;;;;9.68;4.25;;;;;;;;;;5082030;28;20031;-77
2022/09/17 00:15:16;;;;;;;6.63;4.45;;;;;;;;;;5077275;28;20591;-76
2022/09/17 00:17:43;;;;;;;12.10;5.03;;;;;;;;;;5078609;28;20028;-77
2022/09/17 00:20:10;;;;;;;17.77;7.35;;;;;;;;;;5082844;28;20400;-78
2022/09/17 00:22:36;;;;;;;17.00;6.95;;;;;;;;;;5081655;28;20035;-77
2022/09/17 00:25:03;;;;;;;18.55;8.95;;;;;;;;;;5083263;28;20127;-76
2022/09/17 00:27:29;;;;;;;19.40;8.82;;;;;;;;;;5080923;28;20205;-76
2022/09/17 00:29:55;;;;;;;17.20;7.78;;;;;;;;;;5082997;28;20001;-77
2022/09/17 00:32:22;;;;;;;14.60;8.13;;;;;;;;;;5078973;28;20159;-76
2022/09/17 00:34:50;;;;;;;18.25;8.48;;;;;;;;;;5080971;28;20424;-77
2022/09/17 00:37:17;;;;;;;17.30;8.32;;;;;;;;;;5084192;28;20019;-76
2022/09/17 00:39:43;;;;;;;15.15;7.60;;;;;;;;;;5082907;28;20862;-76
2022/09/17 00:42:11;;;;;;;12.88;7.07;;;;;;;;;;5080704;28;20032;-76
2022/09/17 00:44:44;;;;;;;11.75;6.88;;;;;;;;;;5081865;28;20040;-76
2022/09/17 00:47:20;;;;;;;17.38;7.15;;;;;;;;;;5083655;28;20902;-76
2022/09/17 00:49:47;;;;;;;9.60;5.82;;;;;;;;;;5081861;28;20039;-77
2022/09/17 00:52:15;;;;;;;11.32;6.78;;;;;;;;;;5080137;28;20267;-76
2022/09/17 00:54:44;;;;;;;6.93;4.47;;;;;;;;;;5080623;28;20111;-76
2022/09/17 00:57:11;;;;;;;7.43;3.83;;;;;;;;;;5083960;28;20597;-76
2022/09/17 00:59:37;;;;;;;7.13;3.80;;;;;;;;;;5075209;28;20055;-76
2022/09/17 01:02:04;;;;;;;5.75;3.55;;;;;;;;;;5079697;28;20584;-76
2022/09/17 01:04:30;;;;;;;6.50;3.30;;;;;;;;;;5077187;28;20120;-76
2022/09/17 01:07:20;;;;;;;5.82;3.08;;;;;;;;;;5076546;28;20574;-76
2022/09/17 01:09:55;;;;;;;5.95;3.15;;;;;;;;;;5077289;28;20021;-77
2022/09/17 01:12:21;;;;;;;5.70;3.28;;;;;;;;;;5081412;28;20089;-77
2022/09/17 01:15:00;;;;;;;4.53;3.33;;;;;;;;;;5080009;28;20016;-76
2022/09/17 01:17:29;;;;;;;5.25;3.55;;;;;;;;;;5081903;28;20031;-76
2022/09/17 01:20:21;;;;;;;5.50;3.10;;;;;;;;;;5082000;28;20377;-76
2022/09/17 01:22:50;;;;;;;5.75;3.55;;;;;;;;;;5076051;28;20051;-77
2022/09/17 01:25:21;;;;;;;5.65;3.80;;;;;;;;;;5082081;28;20032;-76
2022/09/17 01:27:54;;;;;;;6.82;3.72;;;;;;;;;;5076434;28;20858;-76
2022/09/17 01:30:21;;;;;;;5.22;3.70;;;;;;;;;;5065098;28;20025;-76
2022/09/17 01:32:58;;;;;;;8.68;4.40;;;;;;;;;;5074741;28;20528;-76
2022/09/17 01:35:30;;;;;;;8.52;3.72;;;;;;;;;;5077814;28;20785;-76
2022/09/17 01:38:14;;;;;;;6.65;3.83;;;;;;;;;;5072385;28;20482;-74
2022/09/17 01:40:55;;;;;;;5.47;3.28;;;;;;;;;;5081302;28;20101;-76
2022/09/17 01:43:28;;;;;;;4.40;3.03;;;;;;;;;;5077717;28;20079;-76
2022/09/17 01:46:00;;;;;;;5.70;3.45;;;;;;;;;;5078684;28;20028;-76
2022/09/17 01:48:29;;;;;;;5.10;3.72;;;;;;;;;;5080263;28;20028;-76
2022/09/17 01:51:03;;;;;;;4.07;3.47;;;;;;;;;;5082851;28;20024;-77
2022/09/17 01:53:53;;;;;;;6.25;3.88;;;;;;;;;;5076538;28;20069;-77
2022/09/17 01:56:25;;;;;;;6.30;3.67;;;;;;;;;;5075261;28;20032;-76
2022/09/17 01:58:53;;;;;;;4.88;3.50;;;;;;;;;;5082862;28;20023;-76
2022/09/17 02:01:22;;;;;;;5.45;4.22;;;;;;;;;;5075586;28;20027;-76
2022/09/17 02:03:53;;;;;;;7.70;4.25;;;;;;;;;;5073111;28;20040;-76
2022/09/17 02:06:22;;;;;;;6.60;3.80;;;;;;;;;;5079951;28;20039;-76
2022/09/17 02:08:51;;;;;;;6.25;4.50;;;;;;;;;;5080311;28;20024;-76
2022/09/17 02:11:18;;;;;;;6.45;3.75;;;;;;;;;;5079590;28;20029;-76
2022/09/17 02:13:51;;;;;;;5.20;3.47;;;;;;;;;;5081620;28;20024;-77
2022/09/17 02:16:21;;;;;;;8.13;4.18;;;;;;;;;;5080146;28;20024;-76
2022/09/17 02:18:53;;;;;;;7.72;4.18;;;;;;;;;;5079893;28;20405;-76
2022/09/17 02:21:28;;;;;;;10.00;4.50;;;;;;;;;;5074536;28;20027;-76
2022/09/17 02:24:04;;;;;;;9.63;4.85;;;;;;;;;;5087782;28;20036;-76
2022/09/17 02:26:31;;;;;;;8.30;4.38;;;;;;;;;;5068416;28;20048;-76
2022/09/17 02:29:01;;;;;;;7.70;3.67;;;;;;;;;;5078608;28;20028;-76
2022/09/17 02:31:27;;;;;;;5.38;3.60;;;;;;;;;;5077603;28;20020;-76
2022/09/17 02:33:55;;;;;;;7.75;4.53;;;;;;;;;;5081230;28;20093;-76
2022/09/17 02:36:22;;;;;;;5.00;3.58;;;;;;;;;;5082985;28;20070;-76
2022/09/17 02:38:57;;;;;;;6.07;3.40;;;;;;;;;;5081076;28;20084;-76
2022/09/17 02:41:25;;;;;;;5.32;3.65;;;;;;;;;;5068320;28;20112;-76
2022/09/17 02:44:01;;;;;;;5.15;3.40;;;;;;;;;;5076466;28;20033;-76
2022/09/17 02:46:50;;;;;;;7.65;3.40;;;;;;;;;;5081518;28;20027;-76
2022/09/17 02:49:19;;;;;;;11.82;4.30;;;;;;;;;;5080346;28;20032;-76
2022/09/17 02:51:52;;;;;;;8.52;4.57;;;;;;;;;;5079751;28;20035;-76
2022/09/17 02:54:18;;;;;;;8.27;3.85;;;;;;;;;;5083968;28;20028;-76
2022/09/17 02:56:53;;;;;;;7.13;4.15;;;;;;;;;;5078305;28;20641;-77
2022/09/17 02:59:46;;;;;;;7.53;3.95;;;;;;;;;;5079485;28;20021;-76
2022/09/17 03:02:17;;;;;;;7.13;4.22;;;;;;;;;;5062025;28;20035;-76
2022/09/17 03:04:45;;;;;;;7.05;4.68;;;;;;;;;;5080824;28;20479;-76
2022/09/17 03:07:12;;;;;;;8.27;4.18;;;;;;;;;;5075059;28;20152;-77
2022/09/17 03:09:42;;;;;;;7.40;3.70;;;;;;;;;;5078529;28;20091;-76
2022/09/17 03:12:09;;;;;;;6.47;3.58;;;;;;;;;;5079054;28;20021;-76
2022/09/17 03:14:35;;;;;;;4.93;3.35;;;;;;;;;;5080113;28;20028;-76
2022/09/17 03:17:01;;;;;;;5.70;3.65;;;;;;;;;;5074456;28;20605;-76
2022/09/17 03:19:27;;;;;;;4.45;3.40;;;;;;;;;;5077947;28;20028;-76
2022/09/17 03:21:53;;;;;;;6.78;3.65;;;;;;;;;;5077610;28;20057;-76
2022/09/17 03:24:20;;;;;;;14.57;6.43;;;;;;;;;;5080974;28;20028;-76
2022/09/17 03:26:49;;;;;;;9.55;4.00;;;;;;;;;;5075293;28;20059;-76
2022/09/17 03:29:16;;;;;;;6.30;4.00;;;;;;;;;;5078833;28;20052;-76
2022/09/17 03:31:42;;;;;;;7.22;4.18;;;;;;;;;;5071147;28;20047;-76
2022/09/17 03:34:08;;;;;;;7.28;3.75;;;;;;;;;;5076931;28;20697;-76
2022/09/17 03:36:35;;;;;;;6.10;2.97;;;;;;;;;;5067149;28;20588;-76
2022/09/17 03:39:01;;;;;;;4.88;3.00;;;;;;;;;;5077290;28;20042;-75
2022/09/17 03:41:27;;;;;;;8.10;3.58;;;;;;;;;;5075183;28;20039;-76
2022/09/17 03:43:53;;;;;;;4.03;2.83;;;;;;;;;;5082166;28;20035;-75
2022/09/17 03:46:20;;;;;;;5.47;3.17;;;;;;;;;;5081398;28;20470;-76
2022/09/17 03:48:46;;;;;;;4.38;2.97;;;;;;;;;;5072298;28;20049;-76
2022/09/17 03:51:12;;;;;;;6.53;2.88;;;;;;;;;;5080851;28;20084;-76
2022/09/17 03:53:38;;;;;;;5.82;4.03;;;;;;;;;;5077074;28;20104;-76
2022/09/17 03:56:05;;;;;;;6.63;3.47;;;;;;;;;;5075861;28;20484;-76
2022/09/17 03:58:32;;;;;;;6.20;4.13;;;;;;;;;;5074702;28;20049;-75
2022/09/17 04:00:58;;;;;;;4.65;3.33;;;;;;;;;;5079506;28;20030;-76
2022/09/17 04:03:25;;;;;;;4.95;3.80;;;;;;;;;;5074675;28;20029;-76
2022/09/17 04:05:51;;;;;;;8.88;4.82;;;;;;;;;;5072414;28;20126;-76
2022/09/17 04:08:18;;;;;;;7.93;4.88;;;;;;;;;;5068820;28;20536;-76
2022/09/17 04:10:44;;;;;;;9.52;4.65;;;;;;;;;;5072529;28;20135;-76
2022/09/17 04:13:10;;;;;;;12.52;5.00;;;;;;;;;;5074966;28;20031;-76
2022/09/17 04:15:36;;;;;;;10.25;6.50;;;;;;;;;;5076658;28;20119;-76
2022/09/17 04:18:04;;;;;;;5.88;4.53;;;;;;;;;;5078274;28;20553;-76
2022/09/17 04:20:30;;;;;;;10.40;4.72;;;;;;;;;;5077945;28;20064;-76
2022/09/17 04:22:56;;;;;;;7.05;4.28;;;;;;;;;;5077660;28;20028;-76
2022/09/17 04:25:22;;;;;;;6.25;4.20;;;;;;;;;;5072987;28;20036;-76
2022/09/17 04:27:49;;;;;;;10.05;4.30;;;;;;;;;;5071729;28;20032;-75
2022/09/17 04:30:15;;;;;;;4.93;3.72;;;;;;;;;;5081081;28;20035;-76
2022/09/17 04:32:42;;;;;;;6.35;3.83;;;;;;;;;;5078865;28;20026;-76
2022/09/17 04:35:09;;;;;;;5.93;3.80;;;;;;;;;;5078218;28;20470;-76
2022/09/17 04:37:35;;;;;;;4.50;3.60;;;;;;;;;;5073333;28;20028;-77
2022/09/17 04:40:01;;;;;;;5.75;4.00;;;;;;;;;;5076804;28;20107;-76
2022/09/17 04:42:27;;;;;;;6.15;3.72;;;;;;;;;;5077231;28;20028;-76
2022/09/17 04:44:54;;;;;;;5.55;4.20;;;;;;;;;;5074966;28;20036;-76
2022/09/17 04:47:20;;;;;;;6.53;3.50;;;;;;;;;;5076358;28;20036;-76
2022/09/17 04:49:46;;;;;;;5.78;3.53;;;;;;;;;;5078893;28;20056;-76
2022/09/17 04:52:12;;;;;;;6.45;4.07;;;;;;;;;;5074293;28;20032;-76
2022/09/17 04:54:38;;;;;;;4.60;3.03;;;;;;;;;;5074127;28;20024;-76
2022/09/17 04:57:04;;;;;;;8.85;4.10;;;;;;;;;;5066003;28;20701;-76
2022/09/17 04:59:30;;;;;;;4.22;3.65;;;;;;;;;;5075634;28;20127;-76
2022/09/17 05:01:57;;;;;;;7.88;4.65;;;;;;;;;;5076628;28;20078;-76
2022/09/17 05:04:23;;;;;;;6.70;3.60;;;;;;;;;;5090701;28;20051;-76
2022/09/17 05:06:49;;;;;;;7.55;5.05;;;;;;;;;;5080781;28;20047;-76
2022/09/17 05:09:15;;;;;;;7.60;4.28;;;;;;;;;;5076506;28;20358;-76
2022/09/17 05:11:41;;;;;;;7.43;3.83;;;;;;;;;;5078196;28;20104;-76
2022/09/17 05:14:08;;;;;;;7.03;4.32;;;;;;;;;;5075738;28;20503;-76
2022/09/17 05:16:34;;;;;;;4.75;3.70;;;;;;;;;;5077296;28;20098;-76
2022/09/17 05:19:00;;;;;;;5.50;3.50;;;;;;;;;;5078025;28;20473;-76
2022/09/17 05:21:26;;;;;;;4.70;3.83;;;;;;;;;;5076364;28;20028;-76
2022/09/17 05:23:52;;;;;;;6.93;3.90;;;;;;;;;;5083842;28;20368;-76
2022/09/17 05:26:18;;;;;;;10.38;3.92;;;;;;;;;;5080042;28;20039;-76
2022/09/17 05:28:45;;;;;;;6.85;3.78;;;;;;;;;;5076843;28;20471;-76
2022/09/17 05:31:11;;;;;;;6.80;3.47;;;;;;;;;;5074452;28;20741;-76
2022/09/17 05:33:37;;;;;;;4.65;4.00;;;;;;;;;;5080370;28;20016;-75
2022/09/17 05:36:03;;;;;;;5.13;3.80;;;;;;;;;;5084801;28;20031;-75
2022/09/17 05:38:30;;;;;;;4.30;3.55;;;;;;;;;;5077897;28;20028;-76
2022/09/17 05:40:56;;;;;;;5.95;3.58;;;;;;;;;;5079628;28;20024;-76
2022/09/17 05:43:22;;;;;;;4.45;3.80;;;;;;;;;;5081823;28;20024;-77
2022/09/17 05:45:49;;;;;;;7.13;3.58;;;;;;;;;;5078716;28;20029;-76
2022/09/17 05:48:15;;;;;;;7.72;4.35;;;;;;;;;;5082792;28;20047;-76
2022/09/17 05:50:41;;;;;;;7.47;3.40;;;;;;;;;;5081829;28;20032;-76
2022/09/17 05:53:11;;;;;;;6.05;4.10;;;;;;;;;;5081046;28;20590;-76
2022/09/17 05:55:37;;;;;;;5.28;3.33;;;;;;;;;;5082574;28;20028;-77
2022/09/17 05:58:17;;;;;;;7.63;3.40;;;;;;;;;;5083216;28;20036;-75
2022/09/17 06:00:45;;;;;;;5.47;3.67;;;;;;;;;;5078324;28;20060;-76
2022/09/17 06:03:12;;;;;;;10.52;5.15;;;;;;;;;;5080295;28;20029;-76
2022/09/17 06:05:38;;;;;;;6.80;4.93;;;;;;;;;;5095582;28;20020;-76
2022/09/17 06:08:04;;;;;;;7.28;4.68;;;;;;;;;;5079961;28;20484;-76
2022/09/17 06:10:31;;;;;;;4.88;3.60;;;;;;;;;;5080514;28;20737;-76
2022/09/17 06:12:58;;;;;;;6.13;3.83;;;;;;;;;;5082582;28;20020;-76
2022/09/17 06:15:26;;;;;;;5.95;3.88;;;;;;;;;;5080841;28;20501;-77
2022/09/17 06:17:52;;;;;;;6.20;3.80;;;;;;;;;;5080672;28;20436;-77
2022/09/17 06:20:18;;;;;;;5.35;3.95;;;;;;;;;;5079381;28;20029;-77
2022/09/17 06:22:44;;;;;;;6.50;3.72;;;;;;;;;;5079082;28;20432;-77
2022/09/17 06:25:11;;;;;;;8.90;3.75;;;;;;;;;;5077580;28;20570;-77
2022/09/17 06:27:37;;;;;;;4.57;3.72;;;;;;;;;;5080988;28;20645;-76
2022/09/17 06:30:04;;;;;;;6.72;4.97;;;;;;;;;;5081031;28;21444;-76
2022/09/17 06:32:30;;;;;;;4.93;4.05;;;;;;;;;;5079152;28;20024;-76
2022/09/17 06:34:56;;;;;;;5.63;3.58;;;;;;;;;;5077460;28;20098;-76
2022/09/17 06:37:29;;;;;;;4.95;3.83;;;;;;;;;;5077476;28;20102;-76
2022/09/17 06:39:55;;;;;;;6.25;4.30;;;;;;;;;;5079819;28;20106;-76
2022/09/17 06:42:21;;;;;;;5.55;4.13;;;;;;;;;;5081951;28;20035;-77
2022/09/17 06:44:48;;;;;;;8.00;4.13;;;;;;;;;;5078187;28;20178;-76
2022/09/17 06:47:14;;;;;;;7.72;4.88;;;;;;;;;;5082017;28;20489;-77
2022/09/17 06:49:40;;;;;;;5.53;3.88;;;;;;;;;;5078204;28;20027;-77
2022/09/17 06:52:06;;;;;;;5.10;3.50;;;;;;;;;;5077625;28;20037;-77
2022/09/17 06:54:32;;;;;;;8.80;4.57;;;;;;;;;;5076535;28;20106;-77
2022/09/17 06:56:59;;;;;;;5.38;4.15;;;;;;;;;;5078502;28;20038;-77
2022/09/17 06:59:26;;;;;;;5.88;3.72;;;;;;;;;;5079241;28;20493;-77
2022/09/17 07:01:52;;;;;;;6.22;3.85;;;;;;;;;;5077865;28;20127;-77
2022/09/17 07:04:18;;;;;;;6.65;4.15;;;;;;;;;;5075552;28;20493;-77
2022/09/17 07:06:44;;;;;;;4.97;4.15;;;;;;;;;;5075939;28;20119;-76
2022/09/17 07:09:11;;;;;;;5.55;4.38;;;;;;;;;;5076074;28;20068;-76
2022/09/17 07:11:38;;;;;;;8.73;4.18;;;;;;;;;;5078760;28;20024;-76
2022/09/17 07:14:05;;;;;;;10.07;4.43;;;;;;;;;;5082484;28;20028;-76
2022/09/17 07:16:34;;;;;;;4.93;3.72;;;;;;;;;;5078482;28;20119;-75
2022/09/17 07:19:01;;;;;;;9.48;4.25;;;;;;;;;;5074453;28;20735;-76
2022/09/17 07:21:27;;;;;;;8.43;4.57;;;;;;;;;;5077910;28;20507;-76
2022/09/17 07:23:53;;;;;;;5.28;3.85;;;;;;;;;;5078394;28;20033;-77
2022/09/17 07:26:19;;;;;;;7.70;4.53;;;;;;;;;;5080817;28;20024;-76
2022/09/17 07:28:46;;;;;;;6.05;4.07;;;;;;;;;;5078694;28;20037;-77
2022/09/17 07:31:12;;;;;;;6.30;3.45;;;;;;;;;;5079506;28;20190;-76
2022/09/17 07:33:39;;;;;;;6.20;3.95;;;;;;;;;;5078016;28;20020;-76
2022/09/17 07:36:10;;;;;;;7.25;4.03;;;;;;;;;;5081855;28;20024;-76
2022/09/17 07:38:37;;;;;;;7.00;3.67;;;;;;;;;;5076186;28;20044;-77
2022/09/17 07:41:05;;;;;;;5.43;3.70;;;;;;;;;;5084437;28;20443;-76
2022/09/17 07:43:32;;;;;;;5.05;3.45;;;;;;;;;;5079158;28;20027;-76
2022/09/17 07:45:59;;;;;;;6.78;4.05;;;;;;;;;;5081639;28;20596;-76
2022/09/17 07:48:25;;;;;;;6.32;4.07;;;;;;;;;;5081061;28;20078;-77
2022/09/17 07:50:52;;;;;;;6.68;3.85;;;;;;;;;;5069809;28;20042;-76
2022/09/17 07:53:18;;;;;;;6.13;4.10;;;;;;;;;;5079476;28;20020;-77
2022/09/17 07:55:54;;;;;;;8.77;4.68;;;;;;;;;;5063533;28;20036;-77
2022/09/17 07:58:21;;;;;;;5.60;4.32;;;;;;;;;;5080041;28;20115;-78
2022/09/17 08:00:48;;;;;;;7.70;4.32;;;;;;;;;;5080582;28;20087;-77
2022/09/17 08:03:16;;;;;;;6.50;3.67;;;;;;;;;;5081353;28;20020;-77
2022/09/17 08:05:42;;;;;;;4.63;3.70;;;;;;;;;;5075963;28;20044;-77
2022/09/17 08:08:08;;;;;;;5.95;4.07;;;;;;;;;;5083824;28;20070;-77
2022/09/17 08:10:34;;;;;;;7.85;4.45;;;;;;;;;;5078745;28;20535;-76
2022/09/17 08:13:01;;;;;;;7.53;3.75;;;;;;;;;;5083803;28;20099;-77
2022/09/17 08:15:27;;;;;;;5.47;3.92;;;;;;;;;;5073969;28;20039;-77
2022/09/17 08:17:54;;;;;;;7.82;4.13;;;;;;;;;;5078900;28;20032;-77
2022/09/17 08:20:20;;;;;;;4.20;3.38;;;;;;;;;;5080424;28;20020;-77
2022/09/17 08:22:46;;;;;;;6.63;3.30;;;;;;;;;;5079735;28;20509;-77
2022/09/17 08:25:12;;;;;;;6.22;4.15;;;;;;;;;;5076824;28;20081;-77
2022/09/17 08:27:39;;;;;;;6.55;3.92;;;;;;;;;;5077173;28;20796;-78
2022/09/17 08:30:06;;;;;;;5.65;3.92;;;;;;;;;;5076860;28;20028;-77
2022/09/17 08:32:32;;;;;;;5.32;3.90;;;;;;;;;;5077014;28;20043;-77
2022/09/17 08:34:58;;;;;;;6.68;4.18;;;;;;;;;;5078779;28;20025;-76
2022/09/17 08:37:25;;;;;;;5.95;4.20;;;;;;;;;;5078749;28;20496;-77
2022/09/17 08:39:51;;;;;;;6.03;4.85;;;;;;;;;;5078693;28;20783;-77
2022/09/17 08:42:23;;;;;;;5.90;4.25;;;;;;;;;;5085534;28;20030;-77
2022/09/17 08:44:51;;;;;;;6.80;3.63;;;;;;;;;;5080201;28;20879;-77
2022/09/17 08:47:20;;;;;;;6.18;4.18;;;;;;;;;;5081443;28;20086;-78
2022/09/17 08:49:46;;;;;;;6.25;3.50;;;;;;;;;;5082302;28;21462;-78
2022/09/17 08:52:21;;;;;;;5.18;4.40;;;;;;;;;;5086124;28;20047;-77
2022/09/17 08:55:02;;;;;;;6.53;3.75;;;;;;;;;;5079627;28;20850;-77
2022/09/17 08:57:28;;;;;;;4.13;3.17;;;;;;;;;;5083573;28;20761;-78
2022/09/17 09:00:09;;;;;;;9.57;4.57;;;;;;;;;;5081544;28;20385;-77
2022/09/17 09:02:48;;;;;;;8.52;4.97;;;;;;;;;;5084974;28;20032;-78
2022/09/17 09:05:17;;;;;;;8.85;4.60;;;;;;;;;;5086048;28;20033;-77
2022/09/17 09:07:52;;;;;;;8.73;4.72;;;;;;;;;;5071004;28;20048;-77
2022/09/17 09:10:24;;;;;;;6.22;4.13;;;;;;;;;;5081720;28;20032;-78
2022/09/17 09:12:54;;;;;;;9.65;4.75;;;;;;;;;;5085203;28;20535;-77
2022/09/17 09:15:37;;;;;;;7.22;4.28;;;;;;;;;;5083186;28;20419;-77
2022/09/17 09:18:12;;;;;;;3.90;2.80;;;;;;;;;;5082824;28;20508;-78
2022/09/17 09:20:54;;;;;;;5.45;2.58;;;;;;;;;;5082931;28;20491;-77
2022/09/17 09:23:20;;;;;;;4.43;2.72;;;;;;;;;;5075089;28;20059;-77
2022/09/17 09:25:54;;;;;;;5.05;2.90;;;;;;;;;;5080808;28;20028;-78
2022/09/17 09:28:26;;;;;;;3.70;2.63;;;;;;;;;;5075280;28;20767;-77
2022/09/17 09:31:16;;;;;;;3.45;2.47;;;;;;;;;;5079959;28;20050;-78
2022/09/17 09:33:43;;;;;;;3.78;2.45;;;;;;;;;;5080311;28;20090;-78
2022/09/17 09:36:14;;;;;;;4.85;2.78;;;;;;;;;;5080653;28;20342;-79
2022/09/17 09:38:42;;;;;;;5.60;2.88;;;;;;;;;;5080226;28;20460;-79
2022/09/17 09:41:14;;;;;;;4.45;2.85;;;;;;;;;;5081993;28;20027;-79
2022/09/17 09:43:41;;;;;;;4.80;2.78;;;;;;;;;;5083041;28;20020;-78
2022/09/17 09:46:25;;;;;;;3.40;2.35;;;;;;;;;;5082266;28;20048;-77
2022/09/17 09:49:08;;;;;;;5.03;2.53;;;;;;;;;;5081301;28;20024;-77
2022/09/17 09:51:52;;;;;;;3.28;2.40;;;;;;;;;;5079823;28;20460;-77
2022/09/17 09:54:24;;;;;;;3.28;2.60;;;;;;;;;;5079498;28;20384;-78
2022/09/17 09:56:53;;;;;;;4.93;2.35;;;;;;;;;;5079585;28;20035;-78
2022/09/17 09:59:20;;;;;;;5.25;3.15;;;;;;;;;;5081024;28;20583;-77
2022/09/17 10:01:46;;;;;;;4.10;2.20;;;;;;;;;;5081441;28;20020;-78
2022/09/17 10:04:17;;;;;;;3.58;1.98;;;;;;;;;;5080652;28;20059;-79
2022/09/17 10:06:43;;;;;;;3.47;1.90;;;;;;;;;;5079159;28;20881;-78
2022/09/17 10:09:10;;;;;;;3.88;2.30;;;;;;;;;;5077169;28;20055;-78
2022/09/17 10:11:38;;;;;;;3.30;1.73;;;;;;;;;;5082133;28;20021;-79
2022/09/17 10:14:26;;;;;;;3.13;2.40;;;;;;;;;;5086128;28;20085;-78
2022/09/17 10:17:12;;;;;;;2.38;2.00;;;;;;;;;;5083581;28;20020;-77
2022/09/17 10:19:39;;;;;;;4.43;1.92;;;;;;;;;;5081098;28;20037;-78
2022/09/17 10:22:19;;;;;;;2.42;1.80;;;;;;;;;;5082380;28;20481;-79
2022/09/17 10:24:46;;;;;;;3.10;2.03;;;;;;;;;;5077218;28;20170;-80
2022/09/17 10:27:13;;;;;;;2.75;2.03;;;;;;;;;;5081331;28;20043;-77
2022/09/17 10:29:44;;;;;;;3.38;2.22;;;;;;;;;;5081362;28;20833;-78
2022/09/17 10:32:18;;;;;;;3.40;1.58;;;;;;;;;;5080753;28;20898;-77
2022/09/17 10:35:05;;;;;;;2.55;1.85;;;;;;;;;;5080297;28;20672;-77
2022/09/17 10:37:50;;;;;;;2.67;1.42;;;;;;;;;;5077750;28;20031;-75
2022/09/17 10:40:20;;;;;;;;;;;;;;;;;;5079876;28;20024;-76
2022/09/17 10:42:46;;;;;;;4.88;1.63;;;;;;;;;;5081497;28;19912;-77
2022/09/17 10:45:42;;;;;;;2.10;1.58;;;;;;;;;;5083230;28;20035;-76
2022/09/17 10:48:14;;;;;;;2.00;1.20;;;;;;;;;;5066427;28;20401;-76
2022/09/17 10:50:40;;;;;;;1.95;1.40;;;;;;;;;;5078197;28;20075;-77
2022/09/17 10:53:15;;;;;;;4.03;1.58;;;;;;;;;;5078858;28;20055;-88
2022/09/17 10:56:13;;;;;;;2.17;1.42;;;;;;;;;;5080225;28;20012;-77
2022/09/17 10:58:56;;;;;;;3.22;1.45;;;;;;;;;;5044081;28;20095;-77
2022/09/17 11:01:41;;;;;;;2.80;1.90;;;;;;;;;;5077211;28;20024;-77
2022/09/17 11:04:26;;;;;;;1.80;1.70;;;;;;;;;;5080355;28;20768;-77
2022/09/17 11:06:58;;;;;;;2.00;1.38;;;;;;;;;;5074776;28;20036;-77
2022/09/17 11:09:43;;;;;;;7.90;1.80;;;;;;;;;;5076259;28;20063;-78
2022/09/17 11:12:21;;;;;;;3.47;1.70;;;;;;;;;;5083621;28;20031;-77
2022/09/17 11:15:02;;;;;;;1.98;1.50;;;;;;;;;;5079333;28;20103;-76
2022/09/17 11:17:31;;;;;;;3.63;1.40;;;;;;;;;;5080094;28;20075;-86
2022/09/17 11:20:16;;;;;;;3.30;1.65;;;;;;;;;;5077225;28;20479;-76
2022/09/17 11:22:45;;;;;;;3.20;1.60;;;;;;;;;;5075657;28;20087;-75
2022/09/17 11:25:24;;;;;;;5.45;2.53;;;;;;;;;;5079852;28;20385;-74
2022/09/17 11:28:09;;;;;;;1.42;1.33;;;;;;;;;;5075190;28;20130;-75
2022/09/17 11:30:52;;;;;;;3.50;1.90;;;;;;;;;;5073557;28;20016;-74
2022/09/17 11:33:21;;;;;;;2.20;1.52;;;;;;;;;;5073280;28;20024;-76
2022/09/17 11:36:11;;;;;;;3.10;1.45;;;;;;;;;;5072368;28;20032;-75
2022/09/17 11:38:43;;;;;;;4.93;1.50;;;;;;;;;;5066002;28;20032;-75
2022/09/17 11:41:15;;;;;;;1.30;1.20;;;;;;;;;;5073146;28;20028;-74
2022/09/17 11:43:50;;;;;;;2.95;1.73;;;;;;;;;;5077458;28;20102;-75
2022/09/17 11:46:16;;;;;;;1.58;1.40;;;;;;;;;;5075330;28;20032;-75
2022/09/17 11:48:43;;;;;;;2.50;2.22;;;;;;;;;;5074797;28;20153;-74
2022/09/17 11:51:18;;;;;;;2.92;1.80;;;;;;;;;;5075793;28;20024;-73
2022/09/17 11:53:51;;;;;;;3.10;2.60;;;;;;;;;;5066853;28;20028;-75
2022/09/17 11:56:21;;;;;;;1.85;1.58;;;;;;;;;;5069925;28;20027;-75
2022/09/17 11:58:49;;;;;;;3.85;1.70;;;;;;;;;;5071892;28;20549;-75
2022/09/17 12:01:25;;;;;;;3.50;1.48;;;;;;;;;;5077342;28;20032;-75
2022/09/17 12:04:10;;;;;;;2.00;1.42;;;;;;;;;;5073027;28;20032;-75
2022/09/17 12:07:09;;;;;;;2.42;1.58;;;;;;;;;;5075814;28;20055;-75
2022/09/17 12:09:36;;;;;;;2.28;1.50;;;;;;;;;;5049770;28;20043;-75
2022/09/17 12:12:19;;;;;;;2.60;1.80;;;;;;;;;;5071387;28;20024;-75
2022/09/17 12:15:07;;;;;;;1.83;1.70;;;;;;;;;;5079644;28;20659;-74
2022/09/17 12:17:46;;;;;;;3.58;1.85;;;;;;;;;;5082814;28;20035;-75
2022/09/17 12:20:32;;;;;;;5.43;1.80;;;;;;;;;;5083723;28;20490;-75
2022/09/17 12:23:01;;;;;;;3.83;1.65;;;;;;;;;;5083027;28;20387;-77
2022/09/17 12:25:32;;;;;;;2.42;1.50;;;;;;;;;;5077834;28;20492;-74
2022/09/17 12:28:06;;;;;;;2.20;1.38;;;;;;;;;;5080907;28;20033;-76
2022/09/17 12:30:40;;;;;;;3.00;1.55;;;;;;;;;;5079157;28;20500;-76
2022/09/17 12:33:26;;;;;;;3.30;1.65;;;;;;;;;;5075839;28;20107;-75
2022/09/17 12:36:13;;;;;;;2.50;1.50;;;;;;;;;;5080664;28;20451;-75
2022/09/17 12:38:42;;;;;;;1.60;1.50;;;;;;;;;;5073572;28;20062;-76
2022/09/17 12:41:21;;;;;;;1.75;1.65;;;;;;;;;;5077202;28;20078;-75
2022/09/17 12:43:59;;;;;;;3.13;1.85;;;;;;;;;;5075019;28;20024;-76
2022/09/17 12:46:44;;;;;;;2.80;1.60;;;;;;;;;;5078141;28;20060;-76
2022/09/17 12:49:27;;;;;;;2.25;1.50;;;;;;;;;;5075585;28;20035;-76
2022/09/17 12:51:58;;;;;;;3.30;1.73;;;;;;;;;;5076380;28;20488;-75
2022/09/17 12:54:27;;;;;;;1.50;1.23;;;;;;;;;;5079379;28;20088;-77
2022/09/17 12:57:25;;;;;;;1.90;1.15;;;;;;;;;;5077794;28;20047;-76
2022/09/17 12:59:57;;;;;;;2.33;1.60;;;;;;;;;;5068253;28;20121;-76
2022/09/17 13:02:31;;;;;;;3.50;1.83;;;;;;;;;;5077772;28;20035;-77
2022/09/17 13:05:11;;;;;;;1.50;1.40;;;;;;;;;;5074495;28;20043;-75
2022/09/17 13:07:43;;;;;;;1.98;1.77;;;;;;;;;;5081655;28;20048;-75
2022/09/17 13:10:26;;;;;;;2.90;1.38;;;;;;;;;;5078275;28;20040;-76
2022/09/17 13:12:55;;;;;;;1.92;1.40;;;;;;;;;;5081034;28;20031;-76
2022/09/17 13:15:45;;;;;;;1.40;1.30;;;;;;;;;;5083658;28;20023;-76
2022/09/17 13:18:17;;;;;;;4.15;1.80;;;;;;;;;;5046195;28;20047;-77
2022/09/17 13:20:54;;;;;;;2.25;1.80;;;;;;;;;;5079903;28;20161;-76
2022/09/17 13:23:40;;;;;;;2.17;1.58;;;;;;;;;;5084259;28;20040;-76
2022/09/17 13:26:07;;;;;;;1.70;1.58;;;;;;;;;;5094320;28;20500;-76
2022/09/17 13:29:00;;;;;;;3.97;1.63;;;;;;;;;;5078554;28;20024;-76
2022/09/17 13:31:35;;;;;;;3.28;1.75;;;;;;;;;;5077448;28;20102;-76
2022/09/17 13:34:02;;;;;;;1.40;1.30;;;;;;;;;;5077943;28;20036;-76
2022/09/17 13:36:39;;;;;;;4.15;1.60;;;;;;;;;;5077134;28;20087;-76
2022/09/17 13:39:07;;;;;;;1.98;1.40;;;;;;;;;;5075358;28;20023;-76
2022/09/17 13:41:36;;;;;;;2.25;1.75;;;;;;;;;;5077827;28;20721;-75
2022/09/17 13:44:06;;;;;;;2.00;1.50;;;;;;;;;;5073098;28;20413;-76
2022/09/17 13:46:33;;;;;;;2.83;1.60;;;;;;;;;;5071852;28;20087;-76
2022/09/17 13:49:01;;;;;;;2.05;1.60;;;;;;;;;;5079274;28;20054;-76
2022/09/17 13:51:30;;;;;;;1.65;1.55;;;;;;;;;;5074612;28;20024;-75
2022/09/17 13:54:01;;;;;;;1.85;1.20;;;;;;;;;;5075871;28;20461;-77
2022/09/17 13:56:36;;;;;;;2.17;1.30;;;;;;;;;;5080042;28;20028;-76
2022/09/17 13:59:21;;;;;;;4.18;1.70;;;;;;;;;;5079102;28;20078;-75
2022/09/17 14:02:01;;;;;;;3.08;1.67;;;;;;;;;;5082121;28;20040;-75
2022/09/17 14:04:33;;;;;;;2.97;1.30;;;;;;;;;;5077272;28;20020;-75
2022/09/17 14:06:59;;;;;;;4.10;1.45;;;;;;;;;;5075748;28;20144;-76
2022/09/17 14:09:33;;;;;;;1.15;1.05;;;;;;;;;;5076952;28;20067;-75
2022/09/17 14:12:00;;;;;;;1.92;1.70;;;;;;;;;;5077220;28;20063;-75
2022/09/17 14:14:47;;;;;;;1.58;1.40;;;;;;;;;;5078152;28;20755;-75
2022/09/17 14:17:33;;;;;;;2.03;1.60;;;;;;;;;;5074220;28;20025;-75
2022/09/17 14:20:00;;;;;;;4.15;1.60;;;;;;;;;;5078240;28;20043;-75
2022/09/17 14:22:27;;;;;;;1.80;1.60;;;;;;;;;;5077563;28;20028;-76
2022/09/17 14:24:53;;;;;;;2.58;1.65;;;;;;;;;;5076394;28;20480;-76
2022/09/17 14:27:19;;;;;;;1.60;1.50;;;;;;;;;;5080046;28;20552;-75
2022/09/17 14:30:05;;;;;;;3.22;1.50;;;;;;;;;;5077952;28;20089;-76
2022/09/17 14:32:50;;;;;;;3.95;1.67;;;;;;;;;;5079272;28;20374;-77
2022/09/17 14:35:21;;;;;;;2.55;1.70;;;;;;;;;;5078811;28;20016;-76
2022/09/17 14:38:11;;;;;;;1.45;1.35;;;;;;;;;;5077162;28;20024;-77
2022/09/17 14:40:41;;;;;;;2.13;1.60;;;;;;;;;;5065940;28;20043;-76
2022/09/17 14:43:13;;;;;;;2.30;1.50;;;;;;;;;;5078059;28;20115;-75
2022/09/17 14:45:41;;;;;;;1.77;1.42;;;;;;;;;;5076231;28;20020;-75
2022/09/17 14:48:26;;;;;;;1.35;1.25;;;;;;;;;;5076064;28;20036;-76
2022/09/17 14:50:52;;;;;;;1.80;1.38;;;;;;;;;;5076034;28;20019;-75
2022/09/17 14:53:19;;;;;;;2.15;1.60;;;;;;;;;;5075893;28;20032;-76
2022/09/17 14:55:47;;;;;;;2.38;1.60;;;;;;;;;;5074805;28;20090;-74
2022/09/17 14:58:29;;;;;;;3.05;1.30;;;;;;;;;;5078940;28;22450;-76
2022/09/17 15:00:55;;;;;;;4.40;1.90;;;;;;;;;;5077129;28;20032;-75
2022/09/17 15:03:22;;;;;;;2.40;1.52;;;;;;;;;;5074905;28;20071;-75
2022/09/17 15:05:49;;;;;;;2.72;1.50;;;;;;;;;;5076431;28;20048;-75